Greenville, SC (29615)

8:06 PM EDT on September 03, 2015 (GMT -0400)
Merrifield Park Subdivision | | Change Station
CLOSE
Current Station
Personal Weather Station
Location: Greenville, SC
Elevation: 1010 ft
Nearby Weather Stations

Elev 1010 ft 34.87 °N, 82.32 °W | Updated 2 seconds ago

Partly Cloudy
Partly Cloudy
84.5 °F
Feels Like 89 °F
N
5.0
Wind Variable Wind from WSW
Gusts 5.0 mph

Today
High -- | Low -- °F
--% Chance of Precip.
Yesterday
High -- | Low -- °F
Precip. -- in
7:03 AM 7:53 PM
Waning Gibbous, 65% visible
Pressure 29.91 in
Visibility 10.0 miles
Clouds Few 8000 ft
Heat Index 89 °F
Dew Point 70 °F
Humidity 62%
Rainfall 0.00 in
Snow Depth Not available.
UV 0 out of 12
Pollen 8.80 out of 12
Air Quality Not available.
Flu Activity Not available.
METAR KGMU 032353Z 26006KT 10SM FEW080 29/18 A2994 RMK AO2 SLP126 T02940183 10344 20294 55000
Pressure 29.91 in
Visibility 10.0 miles
Clouds Few 8000 ft
Heat Index 89 °F
Dew Point 70 °F
Humidity 62%
Rainfall 0.00 in
Snow Depth Not available.
UV 0 out of 12
Pollen 8.80 out of 12
Air Quality Not available.
Flu Activity Not available.
METAR KGMU 032353Z 26006KT 10SM FEW080 29/18 A2994 RMK AO2 SLP126 T02940183 10344 20294 55000

10-Day Weather Forecast

×

Almanac

Astronomy

Sep. 03, 2015 Rise Set
Actual Time
Civil Twilight
Nautical Twilight
Astronomical Twilight
Moon
Length of Visible Light
Length of Day
Tomorrow will be .
, % of the Moon is Illuminated

Today's Extremes

State Highs State Lows

Community

WunderPhotos

Upload Photos

1,852,069 photos uploaded!

WunderBlogs® & News

Nearby

Air Quality

  Air Quality AQ Index Pollutant
Not available.

Snow Depth

Station Depth Elevation

Earthquake Activity

City Distance Mag. Time & Date
Minimum magnitude displayed is 2.5.

Coastal Water Temperatures

Place Temperature

Stations

Nearby Weather Stations

Station Location Temp. Windchill Dew Point Humidity Wind Precip. Elev Updated Type